createdAt,value
2019-01-12T00:01:58.775Z,22.73
2019-01-12T00:04:27.440Z,23.97
2019-01-12T00:06:56.305Z,24.57
2019-01-12T00:09:24.999Z,26.70
2019-01-12T00:11:53.500Z,30.53
2019-01-12T00:14:22.165Z,33.00
2019-01-12T00:16:50.822Z,35.27
2019-01-12T00:19:19.655Z,35.90
2019-01-12T00:21:48.213Z,39.40
2019-01-12T00:24:16.604Z,39.63
2019-01-12T00:26:45.410Z,39.47
2019-01-12T00:29:15.011Z,40.63
2019-01-12T00:31:43.632Z,36.40
2019-01-12T00:34:12.236Z,38.53
2019-01-12T00:36:40.896Z,40.57
2019-01-12T00:39:09.363Z,41.17
2019-01-12T00:41:37.909Z,39.00
2019-01-12T00:44:06.553Z,39.43
2019-01-12T00:46:35.152Z,42.03
2019-01-12T00:49:03.848Z,37.67
2019-01-12T00:51:32.378Z,36.73
2019-01-12T00:54:00.904Z,39.50
2019-01-12T00:56:29.564Z,35.87
2019-01-12T00:58:57.919Z,37.87
2019-01-12T01:01:26.610Z,32.63
2019-01-12T01:03:55.707Z,37.73
2019-01-12T01:06:24.398Z,37.63
2019-01-12T01:08:53.018Z,38.27
2019-01-12T01:11:21.753Z,34.63
2019-01-12T01:13:50.310Z,36.67
2019-01-12T01:16:18.972Z,33.80
2019-01-12T01:18:47.511Z,34.63
2019-01-12T01:21:16.230Z,34.10
2019-01-12T01:23:44.891Z,34.60
2019-01-12T01:26:13.697Z,34.50
2019-01-12T01:28:42.435Z,35.03
2019-01-12T01:31:11.022Z,33.30
2019-01-12T01:33:39.652Z,35.10
2019-01-12T01:36:08.247Z,31.80
2019-01-12T01:38:36.901Z,32.80
2019-01-12T01:41:05.674Z,37.67
2019-01-12T01:43:34.089Z,36.47
2019-01-12T01:46:02.583Z,33.53
2019-01-12T01:48:31.432Z,39.40
2019-01-12T01:51:00.098Z,35.23
2019-01-12T01:53:28.627Z,35.47
2019-01-12T01:55:57.341Z,31.23
2019-01-12T01:58:26.017Z,32.80
2019-01-12T02:00:54.910Z,32.70
2019-01-12T02:03:23.767Z,32.33
2019-01-12T02:05:52.426Z,38.83
2019-01-12T02:08:21.080Z,35.63
2019-01-12T02:10:49.763Z,35.27
2019-01-12T02:13:19.472Z,33.57
2019-01-12T02:15:48.148Z,34.50
2019-01-12T02:18:16.443Z,36.13
2019-01-12T02:20:45.189Z,37.30
2019-01-12T02:23:13.911Z,31.67
2019-01-12T02:25:42.498Z,32.20
2019-01-12T02:28:11.336Z,31.93
2019-01-12T02:30:41.000Z,34.47
2019-01-12T02:33:09.669Z,32.27
2019-01-12T02:35:38.472Z,33.23
2019-01-12T02:38:07.257Z,34.47
2019-01-12T02:40:35.778Z,34.87
2019-01-12T02:43:04.484Z,35.53
2019-01-12T02:45:33.844Z,34.20
2019-01-12T02:48:02.627Z,34.43
2019-01-12T02:50:31.039Z,33.87
2019-01-12T02:52:59.743Z,33.07
2019-01-12T02:55:28.406Z,32.47
2019-01-12T02:57:56.762Z,32.33
2019-01-12T03:00:25.516Z,31.50
2019-01-12T03:02:54.205Z,34.53
2019-01-12T03:05:22.916Z,31.97
2019-01-12T03:07:51.289Z,34.03
2019-01-12T03:10:19.976Z,32.60
2019-01-12T03:12:48.596Z,34.77
2019-01-12T03:15:18.018Z,31.17
2019-01-12T03:17:46.465Z,35.77
2019-01-12T03:20:16.449Z,32.53
2019-01-12T03:22:45.235Z,32.93
2019-01-12T03:25:18.628Z,36.83
2019-01-12T03:27:44.147Z,33.50
2019-01-12T03:30:16.746Z,32.10
2019-01-12T03:32:45.585Z,35.60
2019-01-12T03:35:14.487Z,33.50
2019-01-12T03:37:43.222Z,33.87
2019-01-12T03:40:15.679Z,29.80
2019-01-12T03:42:44.377Z,29.70
2019-01-12T03:45:14.139Z,28.07
2019-01-12T03:47:42.921Z,31.17
2019-01-12T03:50:11.707Z,30.87
2019-01-12T03:52:40.266Z,33.20
2019-01-12T03:55:10.349Z,30.17
2019-01-12T03:57:39.969Z,30.77
2019-01-12T04:00:22.274Z,29.97
2019-01-12T04:02:51.013Z,30.13
2019-01-12T04:05:19.724Z,32.60
2019-01-12T04:07:48.529Z,24.70
2019-01-12T04:10:17.147Z,24.50
2019-01-12T04:12:45.968Z,26.00
2019-01-12T04:15:14.801Z,26.80
2019-01-12T04:17:44.387Z,27.63
2019-01-12T04:20:14.621Z,27.27
2019-01-12T04:22:43.211Z,29.63
2019-01-12T04:25:11.630Z,30.67
2019-01-12T04:27:40.211Z,26.97
2019-01-12T04:30:10.281Z,27.73
2019-01-12T04:32:39.913Z,30.53
2019-01-12T04:35:08.785Z,27.90
2019-01-12T04:37:37.571Z,28.73
2019-01-12T04:40:07.965Z,30.77
2019-01-12T04:42:36.385Z,29.50
2019-01-12T04:45:06.239Z,31.80
2019-01-12T04:47:35.072Z,28.20
2019-01-12T04:50:03.924Z,29.63
2019-01-12T04:52:32.471Z,27.97
2019-01-12T04:55:01.210Z,29.57
2019-01-12T04:57:29.794Z,29.67
2019-01-12T04:59:58.433Z,29.40
2019-01-12T05:02:27.870Z,28.80
2019-01-12T05:04:56.497Z,29.73
2019-01-12T05:07:25.180Z,30.13
2019-01-12T05:09:54.997Z,29.23
2019-01-12T05:12:23.706Z,33.80
2019-01-12T05:14:52.277Z,28.43
2019-01-12T05:17:20.922Z,31.30
2019-01-12T05:19:49.576Z,40.73
2019-01-12T05:22:18.257Z,42.57
2019-01-12T05:24:46.627Z,42.73
2019-01-12T05:27:15.143Z,38.47
2019-01-12T05:29:43.961Z,38.33
2019-01-12T05:32:12.656Z,36.87
2019-01-12T05:34:41.427Z,36.07
2019-01-12T05:37:10.054Z,42.43
2019-01-12T05:39:38.789Z,43.03
2019-01-12T05:42:07.091Z,42.00
2019-01-12T05:44:35.848Z,43.13
2019-01-12T05:47:04.565Z,42.43
2019-01-12T05:49:33.310Z,38.23
2019-01-12T05:52:01.890Z,38.73
2019-01-12T05:54:30.335Z,40.93
2019-01-12T05:56:58.760Z,35.97
2019-01-12T05:59:27.153Z,34.50
2019-01-12T06:01:55.634Z,32.10
2019-01-12T06:04:24.191Z,33.77
2019-01-12T06:06:52.823Z,31.20
2019-01-12T06:09:21.405Z,31.20
2019-01-12T06:11:49.763Z,32.90
2019-01-12T06:14:18.319Z,31.50
2019-01-12T06:16:46.737Z,29.33
2019-01-12T06:19:15.438Z,33.27
2019-01-12T06:21:43.690Z,36.37
2019-01-12T06:24:12.248Z,35.77
2019-01-12T06:26:40.928Z,36.17
2019-01-12T06:29:09.692Z,35.70
2019-01-12T06:31:38.221Z,34.43
2019-01-12T06:34:07.657Z,31.67
2019-01-12T06:36:36.049Z,31.23
2019-01-12T06:39:07.054Z,33.63
2019-01-12T06:41:35.413Z,64.20
2019-01-12T06:44:03.935Z,70.37
2019-01-12T06:46:32.743Z,35.33
2019-01-12T06:49:01.380Z,41.27
2019-01-12T06:51:30.112Z,37.13
2019-01-12T06:53:58.913Z,34.73
2019-01-12T06:56:27.144Z,36.40
2019-01-12T06:58:55.622Z,35.73
2019-01-12T07:01:24.187Z,37.00
2019-01-12T07:03:52.690Z,35.07
2019-01-12T07:06:21.088Z,32.23
2019-01-12T07:08:49.556Z,36.10
2019-01-12T07:11:18.137Z,38.37
2019-01-12T07:13:46.462Z,37.33
2019-01-12T07:16:15.339Z,41.80
2019-01-12T07:18:43.820Z,37.13
2019-01-12T07:21:12.469Z,35.03
2019-01-12T07:23:41.233Z,36.73
2019-01-12T07:26:09.849Z,34.43
2019-01-12T07:28:38.657Z,38.17
2019-01-12T07:31:06.979Z,39.70
2019-01-12T07:33:35.389Z,37.20
2019-01-12T07:36:04.122Z,41.93
2019-01-12T07:38:32.651Z,42.90
2019-01-12T07:41:02.520Z,40.23
2019-01-12T07:43:31.152Z,38.87
2019-01-12T07:45:59.757Z,38.27
2019-01-12T07:48:28.071Z,37.57
2019-01-12T07:50:56.388Z,43.37
2019-01-12T07:53:24.998Z,42.17
2019-01-12T07:55:53.573Z,47.27
2019-01-12T07:58:22.288Z,44.30
2019-01-12T08:00:50.988Z,38.27
2019-01-12T08:03:19.283Z,49.53
2019-01-12T08:05:47.707Z,45.93
2019-01-12T08:08:16.375Z,48.23
2019-01-12T08:10:45.276Z,46.23
2019-01-12T08:13:13.918Z,47.47
2019-01-12T08:15:42.567Z,45.97
2019-01-12T08:18:11.320Z,44.67
2019-01-12T08:20:40.089Z,39.90
2019-01-12T08:23:08.899Z,40.37
2019-01-12T08:25:37.362Z,39.33
2019-01-12T08:28:06.001Z,31.00
2019-01-12T08:30:34.757Z,34.87
2019-01-12T08:33:03.476Z,27.63
2019-01-12T08:35:33.149Z,26.33
2019-01-12T08:38:01.690Z,25.60
2019-01-12T08:40:30.255Z,25.07
2019-01-12T08:42:58.885Z,28.50
2019-01-12T08:45:27.584Z,30.60
2019-01-12T08:47:56.373Z,27.03
2019-01-12T08:50:25.132Z,28.00
2019-01-12T08:52:53.871Z,28.87
2019-01-12T08:55:22.588Z,33.13
2019-01-12T08:57:51.311Z,32.23
2019-01-12T09:00:21.715Z,31.83
2019-01-12T09:02:50.393Z,28.65
2019-01-12T09:05:19.120Z,35.10
2019-01-12T09:07:47.914Z,30.80
2019-01-12T09:10:19.687Z,27.23
2019-01-12T09:12:48.757Z,26.80
2019-01-12T09:15:17.046Z,31.57
2019-01-12T09:17:45.801Z,28.90
2019-01-12T09:20:15.031Z,30.83
2019-01-12T09:22:44.165Z,27.40
2019-01-12T09:25:13.925Z,26.53
2019-01-12T09:27:42.574Z,33.03
2019-01-12T09:30:14.611Z,24.67
2019-01-12T09:32:43.251Z,24.47
2019-01-12T09:35:12.836Z,27.50
2019-01-12T09:37:41.594Z,26.40
2019-01-12T09:40:12.927Z,23.27
2019-01-12T09:42:41.747Z,24.50
2019-01-12T09:45:10.980Z,29.03
2019-01-12T09:47:39.749Z,26.07
2019-01-12T09:50:12.178Z,31.63
2019-01-12T09:52:40.857Z,25.13
2019-01-12T09:55:09.631Z,26.70
2019-01-12T09:57:38.415Z,27.20
2019-01-12T10:00:10.250Z,25.80
2019-01-12T10:02:38.928Z,27.67
2019-01-12T10:05:07.653Z,27.57
2019-01-12T10:07:36.423Z,27.73
2019-01-12T10:10:07.852Z,27.27
2019-01-12T10:12:36.516Z,28.17
2019-01-12T10:15:05.829Z,26.10
2019-01-12T10:17:34.477Z,26.20
2019-01-12T10:20:04.034Z,24.77
2019-01-12T10:22:32.374Z,24.70
2019-01-12T10:25:00.688Z,25.23
2019-01-12T10:27:29.424Z,27.33
2019-01-12T10:29:59.143Z,28.00
2019-01-12T10:32:27.742Z,26.53
2019-01-12T10:34:56.555Z,28.97
2019-01-12T10:37:25.964Z,31.67
2019-01-12T10:39:54.391Z,31.90
2019-01-12T10:42:23.029Z,27.60
2019-01-12T10:44:51.733Z,26.53
2019-01-12T10:47:20.542Z,26.90
2019-01-12T10:49:49.293Z,30.53
2019-01-12T10:52:17.944Z,29.80
2019-01-12T10:54:46.684Z,27.40
2019-01-12T10:57:15.495Z,25.90
2019-01-12T10:59:44.240Z,26.80
2019-01-12T11:02:13.087Z,27.73
2019-01-12T11:04:41.648Z,28.07
2019-01-12T11:07:18.471Z,28.50
2019-01-12T11:09:47.089Z,30.87
2019-01-12T11:12:15.847Z,30.03
2019-01-12T11:14:44.331Z,27.27
2019-01-12T11:17:13.025Z,32.53
2019-01-12T11:19:41.772Z,26.20
2019-01-12T11:22:10.464Z,27.97
2019-01-12T11:24:39.153Z,29.53
2019-01-12T11:27:12.195Z,28.63
2019-01-12T11:29:38.502Z,32.43
2019-01-12T11:32:07.177Z,25.80
2019-01-12T11:34:35.836Z,27.23
2019-01-12T11:37:04.625Z,25.83
2019-01-12T11:39:33.347Z,26.87
2019-01-12T11:42:02.149Z,25.83
2019-01-12T11:44:30.724Z,26.43
2019-01-12T11:46:59.400Z,27.33
2019-01-12T11:49:28.072Z,25.23
2019-01-12T11:51:56.773Z,26.77
2019-01-12T11:54:25.583Z,27.30
2019-01-12T11:56:54.286Z,26.37
2019-01-12T11:59:23.204Z,26.00
2019-01-12T12:01:51.863Z,24.17
2019-01-12T12:04:20.444Z,25.30
2019-01-12T12:06:49.180Z,30.67
2019-01-12T12:09:17.874Z,30.10
2019-01-12T12:11:46.408Z,29.30
2019-01-12T12:14:15.081Z,28.30
2019-01-12T12:16:43.647Z,35.83
2019-01-12T12:19:12.351Z,30.37
2019-01-12T12:21:41.157Z,37.50
2019-01-12T12:24:09.801Z,30.70
2019-01-12T12:26:38.442Z,30.43
2019-01-12T12:29:07.173Z,27.73
2019-01-12T12:31:35.776Z,27.00
2019-01-12T12:34:04.571Z,26.67
2019-01-12T12:36:33.200Z,25.50
2019-01-12T12:39:04.665Z,25.20
2019-01-12T12:41:33.202Z,27.17
2019-01-12T12:44:01.963Z,28.80
2019-01-12T12:46:30.656Z,27.03
2019-01-12T12:48:59.496Z,29.20
2019-01-12T12:51:28.186Z,27.00
2019-01-12T12:53:56.532Z,27.10
2019-01-12T12:56:25.323Z,29.37
2019-01-12T12:58:54.048Z,25.60
2019-01-12T13:01:22.865Z,32.23
2019-01-12T13:03:51.679Z,29.77
2019-01-12T13:06:20.312Z,28.57
2019-01-12T13:08:50.008Z,28.10
2019-01-12T13:11:18.789Z,28.07
2019-01-12T13:13:47.431Z,29.53
2019-01-12T13:16:17.155Z,28.83
2019-01-12T13:18:45.847Z,30.93
2019-01-12T13:21:14.523Z,31.27
2019-01-12T13:23:43.297Z,34.70
2019-01-12T13:26:11.938Z,31.27
2019-01-12T13:28:41.813Z,29.90
2019-01-12T13:31:10.504Z,28.93
2019-01-12T13:33:39.292Z,28.80
2019-01-12T13:36:09.183Z,29.50
2019-01-12T13:38:37.830Z,30.67
2019-01-12T13:41:06.639Z,32.10
2019-01-12T13:43:35.315Z,29.80
2019-01-12T13:46:04.017Z,30.03
2019-01-12T13:48:32.789Z,33.70
2019-01-12T13:51:01.418Z,28.43
2019-01-12T13:53:30.204Z,28.20
2019-01-12T13:55:58.847Z,32.63
2019-01-12T13:58:27.469Z,33.60
2019-01-12T14:00:56.240Z,33.93
2019-01-12T14:03:24.833Z,33.57
2019-01-12T14:05:53.552Z,30.77
2019-01-12T14:08:22.173Z,29.33
2019-01-12T14:10:50.745Z,29.43
2019-01-12T14:13:19.413Z,30.20
2019-01-12T14:15:48.164Z,31.17
2019-01-12T14:18:22.632Z,29.77
2019-01-12T14:20:47.509Z,28.30
2019-01-12T14:23:16.225Z,29.10
2019-01-12T14:25:44.936Z,30.73
2019-01-12T14:28:13.706Z,31.23
2019-01-12T14:30:42.431Z,28.27
2019-01-12T14:33:11.343Z,28.00
2019-01-12T14:35:40.212Z,29.27
2019-01-12T14:38:08.944Z,31.67
2019-01-12T14:40:38.723Z,30.17
2019-01-12T14:43:07.325Z,31.17
2019-01-12T14:45:36.264Z,29.70
2019-01-12T14:48:05.447Z,31.17
2019-01-12T14:50:34.079Z,30.63
2019-01-12T14:53:02.837Z,30.13
2019-01-12T14:55:31.551Z,29.03
2019-01-12T14:58:02.569Z,32.23
2019-01-12T15:00:30.665Z,29.00
2019-01-12T15:02:59.259Z,30.57
2019-01-12T15:05:32.298Z,31.93
2019-01-12T15:08:01.005Z,29.30
2019-01-12T15:10:29.871Z,33.10
2019-01-12T15:12:58.644Z,35.60
2019-01-12T15:15:27.269Z,31.43
2019-01-12T15:17:56.091Z,34.43
2019-01-12T15:20:26.891Z,33.23
2019-01-12T15:22:55.731Z,47.50
2019-01-12T15:25:24.592Z,54.57
2019-01-12T15:27:53.444Z,44.83
2019-01-12T15:30:24.429Z,44.63
2019-01-12T15:32:53.117Z,40.03
2019-01-12T15:35:22.364Z,43.90
2019-01-12T15:37:50.999Z,41.00
2019-01-12T15:40:20.553Z,44.03
2019-01-12T15:42:49.232Z,54.33
2019-01-12T15:45:20.504Z,45.30
2019-01-12T15:47:49.401Z,53.40
2019-01-12T15:50:19.888Z,52.33
2019-01-12T15:52:48.698Z,54.07
2019-01-12T15:55:17.018Z,55.03
2019-01-12T15:57:45.667Z,57.10
2019-01-12T16:00:17.034Z,52.03
2019-01-12T16:02:45.875Z,52.13
2019-01-12T16:05:14.649Z,52.77
2019-01-12T16:07:43.290Z,51.60
2019-01-12T16:10:12.294Z,51.97
2019-01-12T16:12:40.970Z,59.63
2019-01-12T16:15:12.845Z,64.97
2019-01-12T16:17:41.648Z,73.07
2019-01-12T16:20:36.687Z,69.20
2019-01-12T16:23:05.538Z,75.00
2019-01-12T16:25:34.082Z,73.40
2019-01-12T16:28:02.868Z,66.57
2019-01-12T16:30:31.515Z,62.37
2019-01-12T16:33:00.398Z,120.23
2019-01-12T16:35:29.130Z,94.63
2019-01-12T16:37:57.869Z,103.47
2019-01-12T16:40:26.535Z,112.23
2019-01-12T16:42:55.392Z,104.13
2019-01-12T16:45:24.003Z,107.07
2019-01-12T16:47:52.787Z,101.70
2019-01-12T16:50:21.467Z,89.60
2019-01-12T16:52:50.170Z,93.90
2019-01-12T16:55:19.227Z,86.23
2019-01-12T16:57:47.871Z,103.23
2019-01-12T17:00:35.899Z,100.30
2019-01-12T17:03:04.541Z,99.50
2019-01-12T17:05:33.319Z,89.67
2019-01-12T17:08:01.945Z,91.57
2019-01-12T17:10:32.099Z,92.80
2019-01-12T17:13:01.066Z,100.93
2019-01-12T17:15:34.671Z,96.80
2019-01-12T17:18:00.162Z,108.80
2019-01-12T17:20:29.255Z,101.57
2019-01-12T17:22:58.801Z,107.90
2019-01-12T17:25:27.296Z,110.40
2019-01-12T17:27:56.838Z,99.27
2019-01-12T17:30:25.562Z,91.47
2019-01-12T17:32:54.317Z,89.67
2019-01-12T17:35:22.941Z,88.73
2019-01-12T17:37:51.724Z,75.80
2019-01-12T17:40:20.382Z,80.50
2019-01-12T17:42:50.091Z,86.63
2019-01-12T17:45:20.792Z,78.10
2019-01-12T17:47:49.413Z,118.07
2019-01-12T17:50:19.895Z,89.23
2019-01-12T17:52:48.559Z,99.37
2019-01-12T17:55:19.036Z,95.30
2019-01-12T17:57:47.889Z,94.93
2019-01-12T18:00:24.094Z,88.10
2019-01-12T18:02:52.908Z,88.33
2019-01-12T18:05:21.544Z,97.90
2019-01-12T18:07:50.342Z,95.53
2019-01-12T18:10:18.899Z,94.47
2019-01-12T18:12:47.574Z,83.13
2019-01-12T18:15:16.315Z,73.37
2019-01-12T18:17:45.029Z,84.57
2019-01-12T18:20:14.284Z,89.47
2019-01-12T18:22:43.048Z,98.30
2019-01-12T18:25:12.020Z,84.53
2019-01-12T18:27:41.317Z,80.70
2019-01-12T18:30:16.253Z,84.77
2019-01-12T18:32:45.043Z,91.43
2019-01-12T18:35:13.585Z,85.57
2019-01-12T18:37:42.204Z,84.80
2019-01-12T18:40:13.645Z,81.07
2019-01-12T18:42:42.470Z,87.90
2019-01-12T18:45:12.926Z,95.70
2019-01-12T18:47:41.604Z,87.07
2019-01-12T18:50:13.682Z,84.27
2019-01-12T18:52:42.343Z,78.33
2019-01-12T18:55:11.002Z,88.67
2019-01-12T18:57:40.692Z,80.80
2019-01-12T19:00:18.399Z,90.83
2019-01-12T19:02:44.176Z,86.33
2019-01-12T19:05:12.911Z,97.77
2019-01-12T19:07:41.752Z,99.33
2019-01-12T19:10:10.560Z,113.70
2019-01-12T19:12:39.280Z,100.63
2019-01-12T19:15:10.879Z,100.83
2019-01-12T19:17:39.495Z,110.43
2019-01-12T19:20:08.136Z,96.57
2019-01-12T19:22:36.608Z,99.53
2019-01-12T19:25:05.672Z,96.67
2019-01-12T19:27:34.440Z,87.70
2019-01-12T19:30:03.394Z,98.90
2019-01-12T19:32:31.647Z,110.17
2019-01-12T19:35:00.346Z,101.23
2019-01-12T19:37:28.900Z,101.37
2019-01-12T19:39:57.464Z,93.07
2019-01-12T19:42:26.063Z,93.73
2019-01-12T19:44:55.000Z,88.77
2019-01-12T19:47:23.573Z,81.93
2019-01-12T19:49:52.236Z,76.87
2019-01-12T19:52:21.020Z,78.07
2019-01-12T19:54:49.647Z,103.10
2019-01-12T19:57:18.392Z,101.30
2019-01-12T19:59:46.887Z,104.63
2019-01-12T20:02:15.722Z,93.60
2019-01-12T20:04:44.508Z,82.07
2019-01-12T20:07:13.277Z,80.10
2019-01-12T20:09:41.640Z,84.93
2019-01-12T20:12:10.431Z,74.10
2019-01-12T20:14:39.054Z,85.33
2019-01-12T20:17:07.502Z,83.83
2019-01-12T20:19:35.817Z,83.73
2019-01-12T20:22:04.648Z,72.13
2019-01-12T20:24:33.216Z,76.80
2019-01-12T20:27:01.921Z,73.40
2019-01-12T20:29:30.540Z,89.73
2019-01-12T20:32:12.730Z,77.03
2019-01-12T20:34:48.145Z,78.17
2019-01-12T20:38:19.661Z,72.47
2019-01-12T20:41:10.045Z,85.70
2019-01-12T20:44:29.592Z,75.03
2019-01-12T20:47:36.475Z,75.13
2019-01-12T20:50:26.206Z,73.73
2019-01-12T20:53:29.964Z,73.23
2019-01-12T20:56:19.656Z,73.13
2019-01-12T20:59:00.891Z,65.20
2019-01-12T21:01:48.447Z,66.40
2019-01-12T21:05:10.827Z,62.53
2019-01-12T21:08:07.422Z,62.87
2019-01-12T21:11:18.159Z,64.47
2019-01-12T21:14:08.040Z,65.80
2019-01-12T21:16:43.491Z,60.67
2019-01-12T21:19:12.204Z,54.50
2019-01-12T21:21:40.932Z,59.17
2019-01-12T21:24:09.568Z,57.70
2019-01-12T21:26:37.889Z,56.20
2019-01-12T21:29:06.363Z,61.73
2019-01-12T21:31:35.021Z,69.70
2019-01-12T21:34:03.864Z,55.37
2019-01-12T21:36:32.194Z,55.90
2019-01-12T21:39:00.829Z,64.13
2019-01-12T21:41:29.471Z,55.40
2019-01-12T21:43:57.867Z,50.33
2019-01-12T21:46:26.453Z,55.57
2019-01-12T21:48:55.280Z,52.50
2019-01-12T21:51:23.979Z,48.67
2019-01-12T21:53:52.732Z,49.73
2019-01-12T21:56:21.573Z,54.10
2019-01-12T21:58:50.249Z,59.67
2019-01-12T22:01:18.949Z,52.33
2019-01-12T22:03:47.634Z,57.30
2019-01-12T22:06:16.251Z,60.23
2019-01-12T22:08:44.956Z,61.37
2019-01-12T22:11:13.660Z,57.10
2019-01-12T22:13:42.244Z,56.27
2019-01-12T22:16:10.956Z,49.63
2019-01-12T22:18:39.636Z,48.87
2019-01-12T22:21:08.255Z,48.83
2019-01-12T22:23:37.027Z,52.40
2019-01-12T22:26:05.520Z,46.77
2019-01-12T22:28:33.934Z,49.27
2019-01-12T22:31:02.791Z,53.60
2019-01-12T22:33:31.521Z,61.53
2019-01-12T22:36:00.129Z,53.77
2019-01-12T22:38:28.676Z,49.07
2019-01-12T22:40:56.998Z,49.43
2019-01-12T22:43:25.697Z,50.87
2019-01-12T22:45:55.014Z,48.70
2019-01-12T22:48:23.741Z,50.83
2019-01-12T22:50:52.119Z,46.50
2019-01-12T22:53:20.748Z,55.83
2019-01-12T22:55:49.547Z,53.27
2019-01-12T22:58:17.865Z,54.83
2019-01-12T23:01:02.511Z,49.20
2019-01-12T23:03:31.136Z,48.63
2019-01-12T23:05:59.777Z,47.57
2019-01-12T23:08:28.357Z,45.03
2019-01-12T23:10:58.793Z,45.20
2019-01-12T23:13:27.531Z,50.07
2019-01-12T23:15:55.743Z,48.70
2019-01-12T23:18:24.506Z,48.17
2019-01-12T23:20:53.220Z,51.63
2019-01-12T23:23:22.058Z,55.60
2019-01-12T23:25:50.843Z,49.20
2019-01-12T23:28:19.483Z,50.17
2019-01-12T23:30:48.131Z,49.87
2019-01-12T23:33:18.909Z,55.30
2019-01-12T23:35:47.739Z,54.13
2019-01-12T23:38:16.542Z,52.00
2019-01-12T23:40:45.182Z,52.97
2019-01-12T23:43:13.857Z,53.43
2019-01-12T23:45:42.418Z,59.90
2019-01-12T23:48:11.113Z,53.23
2019-01-12T23:50:39.859Z,53.57
2019-01-12T23:53:08.554Z,55.33
2019-01-12T23:55:37.250Z,50.27
2019-01-12T23:58:05.929Z,49.33
